sensor_id;sensor_type;location;lat;lon;timestamp;pressure;altitude;pressure_sealevel;temperature
18161;BMP280;9205;52.032;4.314;2024-02-23T00:00:23;98576.19;;;7.86
18161;BMP280;9205;52.032;4.314;2024-02-23T00:02:51;98582.75;;;7.90
18161;BMP280;9205;52.032;4.314;2024-02-23T00:05:19;98588.56;;;7.92
18161;BMP280;9205;52.032;4.314;2024-02-23T00:07:47;98591.06;;;7.92
18161;BMP280;9205;52.032;4.314;2024-02-23T00:10:14;98595.94;;;7.96
18161;BMP280;9205;52.032;4.314;2024-02-23T00:12:41;98592.44;;;7.99
18161;BMP280;9205;52.032;4.314;2024-02-23T00:15:10;98605.97;;;7.98
18161;BMP280;9205;52.032;4.314;2024-02-23T00:17:37;98600.31;;;7.93
18161;BMP280;9205;52.032;4.314;2024-02-23T00:20:10;98596.06;;;7.93
18161;BMP280;9205;52.032;4.314;2024-02-23T00:22:37;98605.16;;;7.97
18161;BMP280;9205;52.032;4.314;2024-02-23T00:25:06;98602.53;;;7.99
18161;BMP280;9205;52.032;4.314;2024-02-23T00:27:33;98607.59;;;7.99
18161;BMP280;9205;52.032;4.314;2024-02-23T00:30:00;98606.91;;;7.95
18161;BMP280;9205;52.032;4.314;2024-02-23T00:32:28;98627.00;;;7.98
18161;BMP280;9205;52.032;4.314;2024-02-23T00:34:57;98629.53;;;7.98
18161;BMP280;9205;52.032;4.314;2024-02-23T00:37:25;98634.81;;;7.94
18161;BMP280;9205;52.032;4.314;2024-02-23T00:39:52;98630.69;;;7.91
18161;BMP280;9205;52.032;4.314;2024-02-23T00:42:19;98632.59;;;7.86
18161;BMP280;9205;52.032;4.314;2024-02-23T00:44:47;98620.56;;;7.91
18161;BMP280;9205;52.032;4.314;2024-02-23T00:47:14;98629.19;;;8.06
18161;BMP280;9205;52.032;4.314;2024-02-23T00:49:42;98630.19;;;8.02
18161;BMP280;9205;52.032;4.314;2024-02-23T00:52:10;98644.63;;;8.00
18161;BMP280;9205;52.032;4.314;2024-02-23T00:54:38;98643.00;;;7.99
18161;BMP280;9205;52.032;4.314;2024-02-23T00:57:05;98633.09;;;7.94
18161;BMP280;9205;52.032;4.314;2024-02-23T00:59:33;98643.41;;;7.90
18161;BMP280;9205;52.032;4.314;2024-02-23T01:02:00;98647.69;;;7.88
18161;BMP280;9205;52.032;4.314;2024-02-23T01:04:27;98663.28;;;7.97
18161;BMP280;9205;52.032;4.314;2024-02-23T01:06:54;98661.22;;;7.87
18161;BMP280;9205;52.032;4.314;2024-02-23T01:09:21;98669.56;;;7.89
18161;BMP280;9205;52.032;4.314;2024-02-23T01:11:50;98660.69;;;7.99
18161;BMP280;9205;52.032;4.314;2024-02-23T01:14:17;98679.66;;;7.89
18161;BMP280;9205;52.032;4.314;2024-02-23T01:16:44;98689.34;;;7.61
18161;BMP280;9205;52.032;4.314;2024-02-23T01:19:11;98685.63;;;7.50
18161;BMP280;9205;52.032;4.314;2024-02-23T01:21:39;98698.53;;;7.44
18161;BMP280;9205;52.032;4.314;2024-02-23T01:24:06;98691.34;;;7.33
18161;BMP280;9205;52.032;4.314;2024-02-23T01:26:33;98692.47;;;7.28
18161;BMP280;9205;52.032;4.314;2024-02-23T01:29:02;98693.88;;;7.33
18161;BMP280;9205;52.032;4.314;2024-02-23T01:31:30;98705.13;;;7.26
18161;BMP280;9205;52.032;4.314;2024-02-23T01:33:57;98714.34;;;7.27
18161;BMP280;9205;52.032;4.314;2024-02-23T01:36:24;98712.69;;;7.26
18161;BMP280;9205;52.032;4.314;2024-02-23T01:38:51;98711.34;;;7.39
18161;BMP280;9205;52.032;4.314;2024-02-23T01:41:18;98715.63;;;7.37
18161;BMP280;9205;52.032;4.314;2024-02-23T01:43:46;98718.91;;;7.39
18161;BMP280;9205;52.032;4.314;2024-02-23T01:46:14;98718.75;;;7.42
18161;BMP280;9205;52.032;4.314;2024-02-23T01:48:44;98719.53;;;7.44
18161;BMP280;9205;52.032;4.314;2024-02-23T01:51:12;98710.31;;;7.43
18161;BMP280;9205;52.032;4.314;2024-02-23T01:53:40;98716.50;;;7.36
18161;BMP280;9205;52.032;4.314;2024-02-23T01:56:08;98719.22;;;7.32
18161;BMP280;9205;52.032;4.314;2024-02-23T01:58:40;98707.22;;;7.37
18161;BMP280;9205;52.032;4.314;2024-02-23T02:01:07;98725.56;;;7.40
18161;BMP280;9205;52.032;4.314;2024-02-23T02:03:38;98715.44;;;7.42
18161;BMP280;9205;52.032;4.314;2024-02-23T02:06:05;98725.28;;;7.48
18161;BMP280;9205;52.032;4.314;2024-02-23T02:08:34;98728.00;;;7.43
18161;BMP280;9205;52.032;4.314;2024-02-23T02:11:01;98732.09;;;7.46
18161;BMP280;9205;52.032;4.314;2024-02-23T02:13:28;98742.38;;;7.41
18161;BMP280;9205;52.032;4.314;2024-02-23T02:15:56;98741.31;;;7.47
18161;BMP280;9205;52.032;4.314;2024-02-23T02:18:23;98729.56;;;7.46
18161;BMP280;9205;52.032;4.314;2024-02-23T02:20:55;98736.84;;;7.53
18161;BMP280;9205;52.032;4.314;2024-02-23T02:23:23;98736.00;;;7.53
18161;BMP280;9205;52.032;4.314;2024-02-23T02:25:53;98749.09;;;7.62
18161;BMP280;9205;52.032;4.314;2024-02-23T02:28:20;98743.09;;;7.65
18161;BMP280;9205;52.032;4.314;2024-02-23T02:30:48;98738.84;;;7.65
18161;BMP280;9205;52.032;4.314;2024-02-23T02:33:16;98741.25;;;7.68
18161;BMP280;9205;52.032;4.314;2024-02-23T02:35:43;98739.53;;;7.69
18161;BMP280;9205;52.032;4.314;2024-02-23T02:38:12;98744.81;;;7.82
18161;BMP280;9205;52.032;4.314;2024-02-23T02:40:39;98732.19;;;7.82
18161;BMP280;9205;52.032;4.314;2024-02-23T02:43:07;98729.59;;;7.84
18161;BMP280;9205;52.032;4.314;2024-02-23T02:45:34;98729.72;;;7.81
18161;BMP280;9205;52.032;4.314;2024-02-23T02:48:03;98732.19;;;7.82
18161;BMP280;9205;52.032;4.314;2024-02-23T02:50:30;98725.63;;;7.78
18161;BMP280;9205;52.032;4.314;2024-02-23T02:52:57;98733.97;;;7.80
18161;BMP280;9205;52.032;4.314;2024-02-23T02:55:26;98725.09;;;7.90
18161;BMP280;9205;52.032;4.314;2024-02-23T02:57:53;98731.88;;;7.90
18161;BMP280;9205;52.032;4.314;2024-02-23T03:00:20;98734.88;;;7.98
18161;BMP280;9205;52.032;4.314;2024-02-23T03:02:47;98745.06;;;7.96
18161;BMP280;9205;52.032;4.314;2024-02-23T03:05:15;98731.97;;;7.87
18161;BMP280;9205;52.032;4.314;2024-02-23T03:07:42;98741.22;;;7.88
18161;BMP280;9205;52.032;4.314;2024-02-23T03:10:09;98740.72;;;7.80
18161;BMP280;9205;52.032;4.314;2024-02-23T03:12:38;98743.13;;;7.83
18161;BMP280;9205;52.032;4.314;2024-02-23T03:15:05;98746.97;;;7.91
18161;BMP280;9205;52.032;4.314;2024-02-23T03:17:33;98752.84;;;7.92
18161;BMP280;9205;52.032;4.314;2024-02-23T03:20:00;98753.16;;;7.84
18161;BMP280;9205;52.032;4.314;2024-02-23T03:22:27;98754.00;;;7.85
18161;BMP280;9205;52.032;4.314;2024-02-23T03:24:54;98763.34;;;7.83
18161;BMP280;9205;52.032;4.314;2024-02-23T03:27:28;98751.84;;;7.76
18161;BMP280;9205;52.032;4.314;2024-02-23T03:29:57;98754.22;;;7.79
18161;BMP280;9205;52.032;4.314;2024-02-23T03:32:24;98758.09;;;7.68
18161;BMP280;9205;52.032;4.314;2024-02-23T03:34:51;98755.22;;;7.57
18161;BMP280;9205;52.032;4.314;2024-02-23T03:37:18;98758.91;;;7.48
18161;BMP280;9205;52.032;4.314;2024-02-23T03:39:45;98763.34;;;7.43
18161;BMP280;9205;52.032;4.314;2024-02-23T03:42:14;98768.50;;;7.40
18161;BMP280;9205;52.032;4.314;2024-02-23T03:44:41;98762.91;;;7.34
18161;BMP280;9205;52.032;4.314;2024-02-23T03:47:10;98759.81;;;7.27
18161;BMP280;9205;52.032;4.314;2024-02-23T03:49:38;98763.84;;;7.31
18161;BMP280;9205;52.032;4.314;2024-02-23T03:52:05;98762.31;;;7.27
18161;BMP280;9205;52.032;4.314;2024-02-23T03:54:32;98772.69;;;7.21
18161;BMP280;9205;52.032;4.314;2024-02-23T03:56:59;98773.81;;;7.14
18161;BMP280;9205;52.032;4.314;2024-02-23T03:59:27;98770.59;;;7.11
18161;BMP280;9205;52.032;4.314;2024-02-23T04:01:54;98763.72;;;7.14
18161;BMP280;9205;52.032;4.314;2024-02-23T04:04:22;98768.31;;;7.05
18161;BMP280;9205;52.032;4.314;2024-02-23T04:06:49;98770.31;;;6.97
18161;BMP280;9205;52.032;4.314;2024-02-23T04:09:16;98768.47;;;7.00
18161;BMP280;9205;52.032;4.314;2024-02-23T04:11:47;98775.22;;;7.00
18161;BMP280;9205;52.032;4.314;2024-02-23T04:14:14;98773.00;;;6.93
18161;BMP280;9205;52.032;4.314;2024-02-23T04:16:41;98768.00;;;6.91
18161;BMP280;9205;52.032;4.314;2024-02-23T04:19:08;98767.44;;;6.85
18161;BMP280;9205;52.032;4.314;2024-02-23T04:21:36;98772.28;;;6.89
18161;BMP280;9205;52.032;4.314;2024-02-23T04:24:04;98769.53;;;6.95
18161;BMP280;9205;52.032;4.314;2024-02-23T04:26:32;98771.88;;;6.99
18161;BMP280;9205;52.032;4.314;2024-02-23T04:28:59;98775.28;;;6.98
18161;BMP280;9205;52.032;4.314;2024-02-23T04:31:26;98777.72;;;7.00
18161;BMP280;9205;52.032;4.314;2024-02-23T04:33:53;98774.44;;;6.98
18161;BMP280;9205;52.032;4.314;2024-02-23T04:36:20;98788.44;;;7.06
18161;BMP280;9205;52.032;4.314;2024-02-23T04:38:49;98776.06;;;7.00
18161;BMP280;9205;52.032;4.314;2024-02-23T04:41:19;98768.59;;;6.97
18161;BMP280;9205;52.032;4.314;2024-02-23T04:43:48;98758.78;;;6.90
18161;BMP280;9205;52.032;4.314;2024-02-23T04:46:15;98762.66;;;6.98
18161;BMP280;9205;52.032;4.314;2024-02-23T04:48:42;98766.88;;;6.98
18161;BMP280;9205;52.032;4.314;2024-02-23T04:51:09;98756.66;;;7.01
18161;BMP280;9205;52.032;4.314;2024-02-23T04:53:37;98762.59;;;6.79
18161;BMP280;9205;52.032;4.314;2024-02-23T04:56:06;98787.66;;;6.83
18161;BMP280;9205;52.032;4.314;2024-02-23T04:58:33;98773.03;;;6.91
18161;BMP280;9205;52.032;4.314;2024-02-23T05:01:00;98769.63;;;6.92
18161;BMP280;9205;52.032;4.314;2024-02-23T05:03:29;98768.47;;;7.00
18161;BMP280;9205;52.032;4.314;2024-02-23T05:05:56;98748.91;;;7.05
18161;BMP280;9205;52.032;4.314;2024-02-23T05:08:23;98754.38;;;6.95
18161;BMP280;9205;52.032;4.314;2024-02-23T05:10:52;98752.56;;;6.98
18161;BMP280;9205;52.032;4.314;2024-02-23T05:13:21;98760.13;;;6.98
18161;BMP280;9205;52.032;4.314;2024-02-23T05:15:48;98777.88;;;6.97
18161;BMP280;9205;52.032;4.314;2024-02-23T05:18:15;98762.31;;;6.86
18161;BMP280;9205;52.032;4.314;2024-02-23T05:20:42;98757.97;;;6.90
18161;BMP280;9205;52.032;4.314;2024-02-23T05:23:10;98757.78;;;6.94
18161;BMP280;9205;52.032;4.314;2024-02-23T05:25:37;98749.34;;;6.95
18161;BMP280;9205;52.032;4.314;2024-02-23T05:28:05;98740.19;;;6.93
18161;BMP280;9205;52.032;4.314;2024-02-23T05:30:33;98744.53;;;6.89
18161;BMP280;9205;52.032;4.314;2024-02-23T05:33:00;98743.59;;;6.92
18161;BMP280;9205;52.032;4.314;2024-02-23T05:35:29;98733.50;;;6.92
18161;BMP280;9205;52.032;4.314;2024-02-23T05:37:56;98732.31;;;7.00
18161;BMP280;9205;52.032;4.314;2024-02-23T05:40:24;98750.56;;;7.06
18161;BMP280;9205;52.032;4.314;2024-02-23T05:42:51;98742.09;;;7.07
18161;BMP280;9205;52.032;4.314;2024-02-23T05:45:18;98736.28;;;7.05
18161;BMP280;9205;52.032;4.314;2024-02-23T05:47:47;98737.41;;;6.98
18161;BMP280;9205;52.032;4.314;2024-02-23T05:50:14;98747.34;;;7.03
18161;BMP280;9205;52.032;4.314;2024-02-23T05:52:41;98728.19;;;6.97
18161;BMP280;9205;52.032;4.314;2024-02-23T05:55:09;98747.91;;;7.09
18161;BMP280;9205;52.032;4.314;2024-02-23T05:57:36;98745.63;;;7.03
18161;BMP280;9205;52.032;4.314;2024-02-23T06:00:05;98741.78;;;6.95
18161;BMP280;9205;52.032;4.314;2024-02-23T06:02:39;98742.16;;;7.06
18161;BMP280;9205;52.032;4.314;2024-02-23T06:05:08;98733.06;;;7.02
18161;BMP280;9205;52.032;4.314;2024-02-23T06:07:35;98727.84;;;7.06
18161;BMP280;9205;52.032;4.314;2024-02-23T06:10:03;98733.00;;;7.03
18161;BMP280;9205;52.032;4.314;2024-02-23T06:12:30;98755.09;;;6.98
18161;BMP280;9205;52.032;4.314;2024-02-23T06:14:58;98743.25;;;7.00
18161;BMP280;9205;52.032;4.314;2024-02-23T06:17:25;98753.44;;;6.97
18161;BMP280;9205;52.032;4.314;2024-02-23T06:19:53;98730.97;;;6.92
18161;BMP280;9205;52.032;4.314;2024-02-23T06:22:24;98727.25;;;7.00
18161;BMP280;9205;52.032;4.314;2024-02-23T06:24:51;98741.44;;;7.02
18161;BMP280;9205;52.032;4.314;2024-02-23T06:27:18;98748.16;;;7.03
18161;BMP280;9205;52.032;4.314;2024-02-23T06:29:48;98724.88;;;6.97
18161;BMP280;9205;52.032;4.314;2024-02-23T06:32:16;98729.72;;;7.01
18161;BMP280;9205;52.032;4.314;2024-02-23T06:34:43;98728.03;;;7.02
18161;BMP280;9205;52.032;4.314;2024-02-23T06:37:11;98738.22;;;6.99
18161;BMP280;9205;52.032;4.314;2024-02-23T06:39:41;98743.09;;;7.03
18161;BMP280;9205;52.032;4.314;2024-02-23T06:42:08;98728.47;;;7.11
18161;BMP280;9205;52.032;4.314;2024-02-23T06:44:35;98743.00;;;7.06
18161;BMP280;9205;52.032;4.314;2024-02-23T06:47:02;98731.94;;;7.09
18161;BMP280;9205;52.032;4.314;2024-02-23T06:49:29;98756.78;;;6.98
18161;BMP280;9205;52.032;4.314;2024-02-23T06:51:57;98733.06;;;7.02
18161;BMP280;9205;52.032;4.314;2024-02-23T06:54:24;98741.69;;;6.97
18161;BMP280;9205;52.032;4.314;2024-02-23T06:56:52;98738.19;;;7.00
18161;BMP280;9205;52.032;4.314;2024-02-23T06:59:20;98736.66;;;6.97
18161;BMP280;9205;52.032;4.314;2024-02-23T07:01:50;98737.50;;;6.97
18161;BMP280;9205;52.032;4.314;2024-02-23T07:04:17;98745.34;;;6.90
18161;BMP280;9205;52.032;4.314;2024-02-23T07:06:44;98754.81;;;6.85
18161;BMP280;9205;52.032;4.314;2024-02-23T07:09:12;98735.06;;;6.94
18161;BMP280;9205;52.032;4.314;2024-02-23T07:11:40;98723.97;;;6.98
18161;BMP280;9205;52.032;4.314;2024-02-23T07:14:10;98727.69;;;7.09
18161;BMP280;9205;52.032;4.314;2024-02-23T07:16:40;98722.78;;;7.06
18161;BMP280;9205;52.032;4.314;2024-02-23T07:19:08;98739.44;;;7.10
18161;BMP280;9205;52.032;4.314;2024-02-23T07:21:36;98714.56;;;7.01
18161;BMP280;9205;52.032;4.314;2024-02-23T07:24:04;98725.44;;;7.03
18161;BMP280;9205;52.032;4.314;2024-02-23T07:26:31;98731.50;;;6.99
18161;BMP280;9205;52.032;4.314;2024-02-23T07:28:58;98726.09;;;6.87
18161;BMP280;9205;52.032;4.314;2024-02-23T07:31:27;98716.44;;;6.77
18161;BMP280;9205;52.032;4.314;2024-02-23T07:33:54;98726.25;;;6.63
18161;BMP280;9205;52.032;4.314;2024-02-23T07:36:21;98729.81;;;6.57
18161;BMP280;9205;52.032;4.314;2024-02-23T07:38:49;98735.28;;;6.45
18161;BMP280;9205;52.032;4.314;2024-02-23T07:41:16;98728.19;;;6.33
18161;BMP280;9205;52.032;4.314;2024-02-23T07:43:44;98710.88;;;6.24
18161;BMP280;9205;52.032;4.314;2024-02-23T07:46:13;98719.16;;;6.28
18161;BMP280;9205;52.032;4.314;2024-02-23T07:48:41;98702.97;;;6.33
18161;BMP280;9205;52.032;4.314;2024-02-23T07:51:09;98714.22;;;6.25
18161;BMP280;9205;52.032;4.314;2024-02-23T07:53:36;98713.56;;;6.20
18161;BMP280;9205;52.032;4.314;2024-02-23T07:56:07;98700.00;;;6.24
18161;BMP280;9205;52.032;4.314;2024-02-23T07:58:34;98702.31;;;6.28
18161;BMP280;9205;52.032;4.314;2024-02-23T08:01:01;98694.75;;;6.28
18161;BMP280;9205;52.032;4.314;2024-02-23T08:03:30;98704.63;;;6.34
18161;BMP280;9205;52.032;4.314;2024-02-23T08:05:58;98708.97;;;6.31
18161;BMP280;9205;52.032;4.314;2024-02-23T08:08:26;98711.13;;;6.40
18161;BMP280;9205;52.032;4.314;2024-02-23T08:10:54;98700.13;;;6.42
18161;BMP280;9205;52.032;4.314;2024-02-23T08:13:21;98706.03;;;6.41
18161;BMP280;9205;52.032;4.314;2024-02-23T08:15:48;98699.28;;;6.42
18161;BMP280;9205;52.032;4.314;2024-02-23T08:18:15;98727.16;;;6.39
18161;BMP280;9205;52.032;4.314;2024-02-23T08:20:42;98722.53;;;6.50
18161;BMP280;9205;52.032;4.314;2024-02-23T08:23:11;98722.53;;;6.50
18161;BMP280;9205;52.032;4.314;2024-02-23T08:25:38;98721.28;;;6.38
18161;BMP280;9205;52.032;4.314;2024-02-23T08:28:06;98709.72;;;6.33
18161;BMP280;9205;52.032;4.314;2024-02-23T08:30:33;98706.28;;;6.35
18161;BMP280;9205;52.032;4.314;2024-02-23T08:33:01;98714.66;;;6.36
18161;BMP280;9205;52.032;4.314;2024-02-23T08:35:28;98708.72;;;6.37
18161;BMP280;9205;52.032;4.314;2024-02-23T08:37:55;98718.69;;;6.40
18161;BMP280;9205;52.032;4.314;2024-02-23T08:40:24;98712.94;;;6.36
18161;BMP280;9205;52.032;4.314;2024-02-23T08:42:51;98718.91;;;6.34
18161;BMP280;9205;52.032;4.314;2024-02-23T08:45:18;98704.56;;;6.36
18161;BMP280;9205;52.032;4.314;2024-02-23T08:47:45;98705.22;;;6.41
18161;BMP280;9205;52.032;4.314;2024-02-23T08:50:13;98717.00;;;6.40
18161;BMP280;9205;52.032;4.314;2024-02-23T08:52:40;98716.16;;;6.40
18161;BMP280;9205;52.032;4.314;2024-02-23T08:55:08;98699.94;;;6.47
18161;BMP280;9205;52.032;4.314;2024-02-23T08:57:36;98685.47;;;6.52
18161;BMP280;9205;52.032;4.314;2024-02-23T09:00:05;98697.28;;;6.50
18161;BMP280;9205;52.032;4.314;2024-02-23T09:02:33;98702.78;;;6.61
18161;BMP280;9205;52.032;4.314;2024-02-23T09:05:05;98705.41;;;6.58
18161;BMP280;9205;52.032;4.314;2024-02-23T09:07:32;98692.38;;;6.68
18161;BMP280;9205;52.032;4.314;2024-02-23T09:09:59;98728.28;;;6.75
18161;BMP280;9205;52.032;4.314;2024-02-23T09:12:27;98709.75;;;6.76
18161;BMP280;9205;52.032;4.314;2024-02-23T09:14:55;98724.56;;;6.83
18161;BMP280;9205;52.032;4.314;2024-02-23T09:17:22;98764.91;;;6.85
18161;BMP280;9205;52.032;4.314;2024-02-23T09:19:51;98708.50;;;6.86
18161;BMP280;9205;52.032;4.314;2024-02-23T09:22:18;98714.28;;;6.88
18161;BMP280;9205;52.032;4.314;2024-02-23T09:24:45;98741.31;;;6.86
18161;BMP280;9205;52.032;4.314;2024-02-23T09:27:13;98720.81;;;6.93
18161;BMP280;9205;52.032;4.314;2024-02-23T09:29:41;98731.75;;;6.94
18161;BMP280;9205;52.032;4.314;2024-02-23T09:32:10;98734.75;;;7.01
18161;BMP280;9205;52.032;4.314;2024-02-23T09:34:37;98735.94;;;7.14
18161;BMP280;9205;52.032;4.314;2024-02-23T09:37:04;98732.47;;;7.17
18161;BMP280;9205;52.032;4.314;2024-02-23T09:39:31;98728.09;;;7.20
18161;BMP280;9205;52.032;4.314;2024-02-23T09:41:59;98741.44;;;7.24
18161;BMP280;9205;52.032;4.314;2024-02-23T09:44:32;98755.50;;;7.29
18161;BMP280;9205;52.032;4.314;2024-02-23T09:47:01;98745.53;;;7.26
18161;BMP280;9205;52.032;4.314;2024-02-23T09:49:39;98738.34;;;7.37
18161;BMP280;9205;52.032;4.314;2024-02-23T09:52:08;98742.25;;;7.44
18161;BMP280;9205;52.032;4.314;2024-02-23T09:54:37;98737.97;;;7.46
18161;BMP280;9205;52.032;4.314;2024-02-23T09:57:08;98733.81;;;7.45
18161;BMP280;9205;52.032;4.314;2024-02-23T09:59:36;98755.31;;;7.54
18161;BMP280;9205;52.032;4.314;2024-02-23T10:02:08;98749.28;;;7.58
18161;BMP280;9205;52.032;4.314;2024-02-23T10:04:39;98786.81;;;7.67
18161;BMP280;9205;52.032;4.314;2024-02-23T10:07:07;98778.09;;;7.74
18161;BMP280;9205;52.032;4.314;2024-02-23T10:09:34;98753.31;;;7.81
18161;BMP280;9205;52.032;4.314;2024-02-23T10:12:02;98756.53;;;7.85
18161;BMP280;9205;52.032;4.314;2024-02-23T10:14:29;98775.91;;;7.84
18161;BMP280;9205;52.032;4.314;2024-02-23T10:16:56;98762.31;;;7.87
18161;BMP280;9205;52.032;4.314;2024-02-23T10:19:25;98784.81;;;7.93
18161;BMP280;9205;52.032;4.314;2024-02-23T10:21:56;98762.81;;;7.95
18161;BMP280;9205;52.032;4.314;2024-02-23T10:24:24;98784.22;;;8.06
18161;BMP280;9205;52.032;4.314;2024-02-23T10:26:52;98780.75;;;8.09
18161;BMP280;9205;52.032;4.314;2024-02-23T10:29:19;98781.50;;;8.11
18161;BMP280;9205;52.032;4.314;2024-02-23T10:31:47;98791.31;;;8.18
18161;BMP280;9205;52.032;4.314;2024-02-23T10:34:19;98792.22;;;8.17
18161;BMP280;9205;52.032;4.314;2024-02-23T10:36:47;98809.84;;;8.19
18161;BMP280;9205;52.032;4.314;2024-02-23T10:39:18;98812.13;;;8.25
18161;BMP280;9205;52.032;4.314;2024-02-23T10:41:51;98816.84;;;8.32
18161;BMP280;9205;52.032;4.314;2024-02-23T10:44:23;98801.81;;;8.48
18161;BMP280;9205;52.032;4.314;2024-02-23T10:46:52;98829.00;;;8.43
18161;BMP280;9205;52.032;4.314;2024-02-23T10:49:23;98832.19;;;8.48
18161;BMP280;9205;52.032;4.314;2024-02-23T10:51:52;98832.38;;;8.43
18161;BMP280;9205;52.032;4.314;2024-02-23T10:54:22;98829.03;;;8.61
18161;BMP280;9205;52.032;4.314;2024-02-23T10:56:50;98852.63;;;8.43
18161;BMP280;9205;52.032;4.314;2024-02-23T10:59:18;98849.31;;;8.41
18161;BMP280;9205;52.032;4.314;2024-02-23T11:01:50;98847.41;;;8.46
18161;BMP280;9205;52.032;4.314;2024-02-23T11:04:19;98842.34;;;8.46
18161;BMP280;9205;52.032;4.314;2024-02-23T11:06:50;98872.16;;;8.40
18161;BMP280;9205;52.032;4.314;2024-02-23T11:09:23;98852.94;;;8.36
18161;BMP280;9205;52.032;4.314;2024-02-23T11:11:55;98849.44;;;8.38
18161;BMP280;9205;52.032;4.314;2024-02-23T11:14:31;98853.78;;;8.55
18161;BMP280;9205;52.032;4.314;2024-02-23T11:16:59;98861.91;;;8.61
18161;BMP280;9205;52.032;4.314;2024-02-23T11:19:33;98851.31;;;8.71
18161;BMP280;9205;52.032;4.314;2024-02-23T11:22:02;98869.19;;;8.68
18161;BMP280;9205;52.032;4.314;2024-02-23T11:24:31;98863.44;;;8.65
18161;BMP280;9205;52.032;4.314;2024-02-23T11:26:59;98885.56;;;8.60
18161;BMP280;9205;52.032;4.314;2024-02-23T11:29:34;98855.47;;;8.54
18161;BMP280;9205;52.032;4.314;2024-02-23T11:32:02;98864.66;;;8.56
18161;BMP280;9205;52.032;4.314;2024-02-23T11:34:30;98854.81;;;8.69
18161;BMP280;9205;52.032;4.314;2024-02-23T11:36:57;98843.59;;;8.74
18161;BMP280;9205;52.032;4.314;2024-02-23T11:39:26;98859.75;;;8.72
18161;BMP280;9205;52.032;4.314;2024-02-23T11:41:57;98858.97;;;8.70
18161;BMP280;9205;52.032;4.314;2024-02-23T11:44:25;98855.25;;;8.78
18161;BMP280;9205;52.032;4.314;2024-02-23T11:46:52;98858.69;;;8.94
18161;BMP280;9205;52.032;4.314;2024-02-23T11:49:19;98853.69;;;9.11
18161;BMP280;9205;52.032;4.314;2024-02-23T11:51:46;98858.50;;;9.17
18161;BMP280;9205;52.032;4.314;2024-02-23T11:54:14;98851.63;;;9.19
18161;BMP280;9205;52.032;4.314;2024-02-23T11:56:42;98853.59;;;9.31
18161;BMP280;9205;52.032;4.314;2024-02-23T11:59:10;98870.09;;;9.39
18161;BMP280;9205;52.032;4.314;2024-02-23T12:01:38;98859.34;;;9.34
18161;BMP280;9205;52.032;4.314;2024-02-23T12:04:06;98853.53;;;9.32
18161;BMP280;9205;52.032;4.314;2024-02-23T12:06:33;98866.38;;;9.46
18161;BMP280;9205;52.032;4.314;2024-02-23T12:09:01;98845.97;;;9.49
18161;BMP280;9205;52.032;4.314;2024-02-23T12:11:30;98861.97;;;9.50
18161;BMP280;9205;52.032;4.314;2024-02-23T12:13:58;98859.38;;;9.51
18161;BMP280;9205;52.032;4.314;2024-02-23T12:16:27;98848.88;;;9.59
18161;BMP280;9205;52.032;4.314;2024-02-23T12:18:55;98866.38;;;9.63
18161;BMP280;9205;52.032;4.314;2024-02-23T12:21:24;98855.59;;;9.60
18161;BMP280;9205;52.032;4.314;2024-02-23T12:23:51;98864.66;;;9.47
18161;BMP280;9205;52.032;4.314;2024-02-23T12:26:19;98873.38;;;9.41
18161;BMP280;9205;52.032;4.314;2024-02-23T12:28:47;98874.06;;;9.45
18161;BMP280;9205;52.032;4.314;2024-02-23T12:31:14;98892.38;;;9.50
18161;BMP280;9205;52.032;4.314;2024-02-23T12:33:45;98865.94;;;9.55
18161;BMP280;9205;52.032;4.314;2024-02-23T12:36:14;98890.31;;;9.58
18161;BMP280;9205;52.032;4.314;2024-02-23T12:38:42;98871.25;;;9.68
18161;BMP280;9205;52.032;4.314;2024-02-23T12:41:09;98884.94;;;9.64
18161;BMP280;9205;52.032;4.314;2024-02-23T12:43:37;98884.00;;;9.66
18161;BMP280;9205;52.032;4.314;2024-02-23T12:46:04;98892.53;;;9.64
18161;BMP280;9205;52.032;4.314;2024-02-23T12:48:32;98888.47;;;9.78
18161;BMP280;9205;52.032;4.314;2024-02-23T12:51:01;98889.69;;;9.88
18161;BMP280;9205;52.032;4.314;2024-02-23T12:53:34;98894.53;;;9.93
18161;BMP280;9205;52.032;4.314;2024-02-23T12:56:03;98896.00;;;9.80
18161;BMP280;9205;52.032;4.314;2024-02-23T12:58:31;98888.25;;;9.83
18161;BMP280;9205;52.032;4.314;2024-02-23T13:00:59;98897.34;;;9.87
18161;BMP280;9205;52.032;4.314;2024-02-23T13:03:26;98886.38;;;9.86
18161;BMP280;9205;52.032;4.314;2024-02-23T13:05:54;98896.84;;;9.97
18161;BMP280;9205;52.032;4.314;2024-02-23T13:08:24;98896.56;;;10.03
18161;BMP280;9205;52.032;4.314;2024-02-23T13:10:53;98892.66;;;9.96
18161;BMP280;9205;52.032;4.314;2024-02-23T13:13:21;98893.19;;;9.86
18161;BMP280;9205;52.032;4.314;2024-02-23T13:15:50;98905.66;;;9.90
18161;BMP280;9205;52.032;4.314;2024-02-23T13:18:18;98902.28;;;9.90
18161;BMP280;9205;52.032;4.314;2024-02-23T13:20:46;98903.13;;;9.90
18161;BMP280;9205;52.032;4.314;2024-02-23T13:23:13;98905.69;;;9.89
18161;BMP280;9205;52.032;4.314;2024-02-23T13:25:43;98910.63;;;9.92
18161;BMP280;9205;52.032;4.314;2024-02-23T13:28:11;98896.53;;;9.86
18161;BMP280;9205;52.032;4.314;2024-02-23T13:30:39;98911.66;;;9.88
18161;BMP280;9205;52.032;4.314;2024-02-23T13:33:06;98908.06;;;9.75
18161;BMP280;9205;52.032;4.314;2024-02-23T13:35:34;98894.50;;;9.76
18161;BMP280;9205;52.032;4.314;2024-02-23T13:38:01;98897.13;;;9.74
18161;BMP280;9205;52.032;4.314;2024-02-23T13:40:29;98885.94;;;9.78
18161;BMP280;9205;52.032;4.314;2024-02-23T13:42:58;98911.38;;;9.77
18161;BMP280;9205;52.032;4.314;2024-02-23T13:45:25;98896.22;;;9.75
18161;BMP280;9205;52.032;4.314;2024-02-23T13:47:57;98898.25;;;9.69
18161;BMP280;9205;52.032;4.314;2024-02-23T13:50:25;98907.63;;;9.67
18161;BMP280;9205;52.032;4.314;2024-02-23T13:52:52;98894.28;;;9.63
18161;BMP280;9205;52.032;4.314;2024-02-23T13:55:20;98888.81;;;9.54
18161;BMP280;9205;52.032;4.314;2024-02-23T13:57:47;98903.88;;;9.57
18161;BMP280;9205;52.032;4.314;2024-02-23T14:00:18;98900.16;;;9.64
18161;BMP280;9205;52.032;4.314;2024-02-23T14:02:46;98916.78;;;9.69
18161;BMP280;9205;52.032;4.314;2024-02-23T14:05:13;98916.53;;;9.57
18161;BMP280;9205;52.032;4.314;2024-02-23T14:07:41;98915.13;;;9.51
18161;BMP280;9205;52.032;4.314;2024-02-23T14:10:09;98915.34;;;9.47
18161;BMP280;9205;52.032;4.314;2024-02-23T14:12:36;98921.44;;;9.43
18161;BMP280;9205;52.032;4.314;2024-02-23T14:15:04;98916.25;;;9.46
18161;BMP280;9205;52.032;4.314;2024-02-23T14:17:33;98917.22;;;9.43
18161;BMP280;9205;52.032;4.314;2024-02-23T14:20:01;98917.13;;;9.45
18161;BMP280;9205;52.032;4.314;2024-02-23T14:22:29;98930.34;;;9.51
18161;BMP280;9205;52.032;4.314;2024-02-23T14:24:57;98919.75;;;9.43
18161;BMP280;9205;52.032;4.314;2024-02-23T14:27:25;98935.88;;;9.41
18161;BMP280;9205;52.032;4.314;2024-02-23T14:29:52;98926.03;;;9.35
18161;BMP280;9205;52.032;4.314;2024-02-23T14:32:20;98930.63;;;9.27
18161;BMP280;9205;52.032;4.314;2024-02-23T14:34:48;98938.19;;;9.29
18161;BMP280;9205;52.032;4.314;2024-02-23T14:37:16;98936.16;;;9.35